Green Brook, New Jersey
Current Conditions -  °F | °C
As of 11:34 PM on Tuesday 21 Oct 2014 (Local Time) from KSMQ Reporting Station
Haze Haze  
Wind Chill: 50°   Ceiling: 9000
Heat Index: 50°   Visibility: 1.7mi
Dew Point: 48°   Wind: 5mph
Humidity: 93%   Direction: 320°NW
Pressure: 29.89"   Gusts: NA
Location:  40.6011°N, 74.4794°W
Report Text: KSMQ 220334Z AUTO 32004KT 1 3/4SM BR OVC090 10/09 A2989 RMK AO2 T01000089
Loading
Personal Weather Stations






























Interactive Weather Map
Tropical Storm Tracking
New forecast layout! Learn more

10-Day Weather Forecast

Advertisements
Track Severe Weather on mobile